DGAIG EDDF-EGPH
Flight info
| Callsign | DGAIG |
|---|---|
| Flight time | N/A |
| Altitude | 20000 |
| Route | OBOKA3M/25C OBOKA Z28 DIBIR T601 NAVPI DCT DOLAS N110 ERKIT DCT BAVDO DCT TIPTA DCT AGPED |
| Aircraft | DA62/L-SDGPRY/S |
Departure
| Time | 2026-05-04 13:33 |
|---|---|
| Airport | Frankfurt Main Airport (EDDF) |
Arrival
| Time | N/A |
|---|---|
| Airport | Edinburgh Airport (EGPH) |
| Time | Latitude | Longitude | Altitude | Speed | Heading |
|---|---|---|---|---|---|
| 2026-05-04 12:57 | 50.03055 | 8.56398 | 345 ft | 0 kts | 70° |
| 2026-05-04 13:20 | 50.03058 | 8.56404 | 345 ft | 1 kts | 33° |
| 2026-05-04 13:20 | 50.03064 | 8.56405 | 355 ft | 4 kts | 351° |
| 2026-05-04 13:20 | 50.03062 | 8.56356 | 345 ft | 5 kts | 245° |
| 2026-05-04 13:21 | 50.03053 | 8.56327 | 347 ft | 1 kts | 245° |
| 2026-05-04 13:21 | 50.03052 | 8.56325 | 347 ft | 0 kts | 245° |
| 2026-05-04 13:24 | 50.03047 | 8.56306 | 344 ft | 4 kts | 247° |
| 2026-05-04 13:24 | 50.03034 | 8.56258 | 344 ft | 6 kts | 246° |
| 2026-05-04 13:24 | 50.03037 | 8.56204 | 338 ft | 6 kts | 338° |
| 2026-05-04 13:25 | 50.03103 | 8.56163 | 348 ft | 4 kts | 338° |
| 2026-05-04 13:25 | 50.03120 | 8.56152 | 346 ft | 1 kts | 338° |
| 2026-05-04 13:25 | 50.03123 | 8.56151 | 345 ft | 3 kts | 345° |
| 2026-05-04 13:25 | 50.03153 | 8.56160 | 345 ft | 5 kts | 19° |
| 2026-05-04 13:26 | 50.03180 | 8.56175 | 346 ft | 3 kts | 19° |
| 2026-05-04 13:26 | 50.03208 | 8.56187 | 351 ft | 7 kts | 13° |
| 2026-05-04 13:26 | 50.03238 | 8.56240 | 350 ft | 8 kts | 68° |
| 2026-05-04 13:26 | 50.03265 | 8.56353 | 353 ft | 13 kts | 70° |
| 2026-05-04 13:27 | 50.03296 | 8.56492 | 354 ft | 15 kts | 68° |
| 2026-05-04 13:27 | 50.03341 | 8.56667 | 352 ft | 18 kts | 67° |
| 2026-05-04 13:27 | 50.03381 | 8.56839 | 353 ft | 16 kts | 71° |
| 2026-05-04 13:27 | 50.03432 | 8.57047 | 353 ft | 24 kts | 73° |
| 2026-05-04 13:28 | 50.03489 | 8.57290 | 353 ft | 25 kts | 70° |
| 2026-05-04 13:28 | 50.03548 | 8.57539 | 360 ft | 23 kts | 71° |
| 2026-05-04 13:28 | 50.03605 | 8.57774 | 365 ft | 24 kts | 69° |
| 2026-05-04 13:28 | 50.03657 | 8.57995 | 368 ft | 20 kts | 68° |
| 2026-05-04 13:29 | 50.03718 | 8.58042 | 367 ft | 8 kts | 338° |
| 2026-05-04 13:29 | 50.03791 | 8.57998 | 366 ft | 22 kts | 340° |
| 2026-05-04 13:29 | 50.03972 | 8.57896 | 362 ft | 28 kts | 339° |
| 2026-05-04 13:29 | 50.04014 | 8.57871 | 355 ft | 9 kts | 339° |
| 2026-05-04 13:30 | 50.04133 | 8.57804 | 334 ft | 24 kts | 340° |
| 2026-05-04 13:30 | 50.04200 | 8.57757 | 327 ft | 0 kts | 333° |
| 2026-05-04 13:31 | 50.04251 | 8.57722 | 328 ft | 10 kts | 335° |
| 2026-05-04 13:31 | 50.04268 | 8.57670 | 329 ft | 7 kts | 253° |
| 2026-05-04 13:31 | 50.04263 | 8.57654 | 329 ft | 0 kts | 244° |
| 2026-05-04 13:31 | 50.04230 | 8.57526 | 334 ft | 39 kts | 250° |
| 2026-05-04 13:32 | 50.04080 | 8.56896 | 348 ft | 82 kts | 246° |
| 2026-05-04 13:32 | 50.03860 | 8.55938 | 405 ft | 101 kts | 245° |
| 2026-05-04 13:32 | 50.03603 | 8.54873 | 517 ft | 112 kts | 244° |
| 2026-05-04 13:32 | 50.03310 | 8.53708 | 682 ft | 118 kts | 244° |
| 2026-05-04 13:33 | 50.03081 | 8.52470 | 882 ft | 125 kts | 252° |
| 2026-05-04 13:33 | 50.02766 | 8.51184 | 1011 ft | 129 kts | 248° |
| 2026-05-04 13:33 | 50.02428 | 8.50414 | 1048 ft | 133 kts | 223° |
| 2026-05-04 13:33 | 50.01596 | 8.49784 | 1209 ft | 133 kts | 202° |
| 2026-05-04 13:34 | 50.00711 | 8.49375 | 1359 ft | 132 kts | 200° |
| 2026-05-04 13:34 | 49.99815 | 8.49038 | 1471 ft | 130 kts | 196° |
| 2026-05-04 13:34 | 49.98923 | 8.48724 | 1606 ft | 132 kts | 203° |
| 2026-05-04 13:34 | 49.98066 | 8.48277 | 1823 ft | 125 kts | 203° |
| 2026-05-04 13:35 | 49.97283 | 8.47803 | 2002 ft | 120 kts | 204° |
| 2026-05-04 13:35 | 49.95739 | 8.46964 | 2462 ft | 117 kts | 200° |
| 2026-05-04 13:35 | 49.94952 | 8.46610 | 2731 ft | 114 kts | 200° |
| 2026-05-04 13:36 | 49.94201 | 8.46264 | 3009 ft | 113 kts | 201° |
| 2026-05-04 13:36 | 49.93426 | 8.45884 | 3237 ft | 119 kts | 202° |
| 2026-05-04 13:36 | 49.92627 | 8.45491 | 3493 ft | 124 kts | 200° |
| 2026-05-04 13:36 | 49.91801 | 8.45047 | 3727 ft | 127 kts | 211° |
| 2026-05-04 13:37 | 49.91152 | 8.44141 | 3981 ft | 126 kts | 237° |
| 2026-05-04 13:37 | 49.90699 | 8.42963 | 4239 ft | 128 kts | 241° |
| 2026-05-04 13:37 | 49.90234 | 8.41769 | 4490 ft | 130 kts | 241° |
| 2026-05-04 13:37 | 49.89760 | 8.40549 | 4748 ft | 133 kts | 241° |
| 2026-05-04 13:38 | 49.89281 | 8.39315 | 5000 ft | 135 kts | 241° |
| 2026-05-04 13:38 | 49.88806 | 8.38079 | 5247 ft | 136 kts | 242° |
| 2026-05-04 13:38 | 49.88552 | 8.36665 | 5502 ft | 139 kts | 265° |
| 2026-05-04 13:38 | 49.88616 | 8.35162 | 5756 ft | 140 kts | 272° |
| 2026-05-04 13:39 | 49.88694 | 8.33646 | 6009 ft | 142 kts | 271° |
| 2026-05-04 13:39 | 49.88773 | 8.32116 | 6266 ft | 143 kts | 271° |
| 2026-05-04 13:39 | 49.88853 | 8.30570 | 6520 ft | 144 kts | 270° |
| 2026-05-04 13:39 | 49.88932 | 8.29068 | 6882 ft | 137 kts | 270° |
| 2026-05-04 13:40 | 49.89007 | 8.27627 | 7245 ft | 131 kts | 270° |
| 2026-05-04 13:40 | 49.89234 | 8.26263 | 7611 ft | 133 kts | 292° |
| 2026-05-04 13:40 | 49.89776 | 8.25087 | 7972 ft | 134 kts | 300° |
| 2026-05-04 13:40 | 49.90325 | 8.23926 | 8316 ft | 133 kts | 300° |
| 2026-05-04 13:41 | 49.90874 | 8.22775 | 8676 ft | 133 kts | 300° |
| 2026-05-04 13:41 | 49.91428 | 8.21610 | 9047 ft | 136 kts | 300° |
| 2026-05-04 13:41 | 49.91998 | 8.20415 | 9408 ft | 139 kts | 300° |
| 2026-05-04 13:42 | 49.93177 | 8.17918 | 10140 ft | 149 kts | 298° |
| 2026-05-04 13:42 | 49.93807 | 8.16612 | 10475 ft | 152 kts | 299° |
| 2026-05-04 13:42 | 49.94537 | 8.15408 | 10812 ft | 155 kts | 314° |
| 2026-05-04 13:42 | 49.95359 | 8.14333 | 11154 ft | 154 kts | 313° |
| 2026-05-04 13:43 | 49.96165 | 8.13256 | 11500 ft | 152 kts | 313° |
| 2026-05-04 13:43 | 49.96961 | 8.12192 | 11850 ft | 151 kts | 313° |
| 2026-05-04 13:43 | 49.97753 | 8.11135 | 12202 ft | 149 kts | 313° |
| 2026-05-04 13:43 | 49.98531 | 8.10095 | 12559 ft | 146 kts | 313° |
| 2026-05-04 13:44 | 49.99298 | 8.09070 | 12920 ft | 144 kts | 313° |
| 2026-05-04 13:44 | 50.00106 | 8.07983 | 12990 ft | 165 kts | 314° |
| 2026-05-04 13:44 | 50.01028 | 8.06745 | 12999 ft | 184 kts | 314° |
| 2026-05-04 13:44 | 50.02007 | 8.05443 | 13278 ft | 183 kts | 314° |
| 2026-05-04 13:45 | 50.02955 | 8.04179 | 13655 ft | 180 kts | 314° |
| 2026-05-04 13:45 | 50.03896 | 8.02915 | 13992 ft | 178 kts | 314° |
| 2026-05-04 13:45 | 50.04825 | 8.01675 | 14320 ft | 174 kts | 314° |
| 2026-05-04 13:45 | 50.05713 | 8.00485 | 14643 ft | 167 kts | 314° |
| 2026-05-04 13:46 | 50.06576 | 7.99326 | 14977 ft | 161 kts | 313° |
| 2026-05-04 13:46 | 50.07406 | 7.98211 | 15313 ft | 155 kts | 313° |
| 2026-05-04 13:46 | 50.08216 | 7.97122 | 15624 ft | 152 kts | 313° |
| 2026-05-04 13:46 | 50.09001 | 7.96068 | 15948 ft | 148 kts | 312° |
| 2026-05-04 13:47 | 50.09773 | 7.95028 | 16270 ft | 144 kts | 312° |
| 2026-05-04 13:47 | 50.10519 | 7.94026 | 16595 ft | 139 kts | 311° |
| 2026-05-04 13:47 | 50.11234 | 7.93065 | 16927 ft | 133 kts | 311° |
| 2026-05-04 13:47 | 50.11915 | 7.92149 | 17254 ft | 125 kts | 310° |
| 2026-05-04 13:48 | 50.12565 | 7.91270 | 17491 ft | 126 kts | 310° |
| 2026-05-04 13:48 | 50.13247 | 7.90349 | 17638 ft | 134 kts | 311° |
| 2026-05-04 13:48 | 50.13974 | 7.89368 | 17774 ft | 142 kts | 311° |
| 2026-05-04 13:48 | 50.14728 | 7.88350 | 17921 ft | 149 kts | 311° |
| 2026-05-04 13:49 | 50.15529 | 7.87270 | 18054 ft | 155 kts | 312° |
| 2026-05-04 13:49 | 50.16356 | 7.86156 | 18193 ft | 159 kts | 312° |
| 2026-05-04 13:49 | 50.17206 | 7.85010 | 18323 ft | 163 kts | 312° |
| 2026-05-04 13:49 | 50.18070 | 7.83842 | 18441 ft | 166 kts | 312° |
| 2026-05-04 13:50 | 50.18947 | 7.82659 | 18559 ft | 167 kts | 312° |
| 2026-05-04 13:50 | 50.19832 | 7.81463 | 18693 ft | 169 kts | 312° |
| 2026-05-04 13:50 | 50.20725 | 7.80254 | 18811 ft | 171 kts | 312° |
| 2026-05-04 13:50 | 50.21626 | 7.79035 | 18929 ft | 172 kts | 312° |
| 2026-05-04 13:51 | 50.22528 | 7.77815 | 19051 ft | 171 kts | 312° |
| 2026-05-04 13:51 | 50.23422 | 7.76604 | 19168 ft | 171 kts | 312° |
| 2026-05-04 13:51 | 50.24321 | 7.75385 | 19288 ft | 171 kts | 312° |
| 2026-05-04 13:51 | 50.25220 | 7.74169 | 19406 ft | 172 kts | 313° |
| 2026-05-04 13:52 | 50.27403 | 7.72498 | 19647 ft | 175 kts | 330° |
| 2026-05-04 13:52 | 50.28518 | 7.71731 | 19772 ft | 175 kts | 330° |
| 2026-05-04 13:52 | 50.29641 | 7.70961 | 19895 ft | 177 kts | 330° |
| 2026-05-04 13:53 | 50.30773 | 7.70187 | 19984 ft | 180 kts | 330° |
| 2026-05-04 13:53 | 50.31941 | 7.69385 | 19988 ft | 187 kts | 330° |
| 2026-05-04 13:53 | 50.33152 | 7.68557 | 19988 ft | 192 kts | 330° |
| 2026-05-04 13:54 | 50.35634 | 7.66858 | 19991 ft | 197 kts | 331° |
| 2026-05-04 13:54 | 50.36900 | 7.65989 | 19992 ft | 200 kts | 331° |
| 2026-05-04 13:54 | 50.39460 | 7.64233 | 19992 ft | 202 kts | 331° |
| 2026-05-04 13:55 | 50.40731 | 7.63361 | 19995 ft | 202 kts | 330° |
| 2026-05-04 13:55 | 50.43300 | 7.61593 | 19994 ft | 202 kts | 330° |
| 2026-05-04 13:55 | 50.44587 | 7.60707 | 19990 ft | 202 kts | 330° |
| 2026-05-04 13:56 | 50.45875 | 7.59820 | 19989 ft | 202 kts | 330° |
| 2026-05-04 13:56 | 50.47168 | 7.58930 | 19989 ft | 203 kts | 331° |
| 2026-05-04 13:56 | 50.49754 | 7.57146 | 19989 ft | 203 kts | 330° |
| 2026-05-04 13:57 | 50.51048 | 7.56252 | 19990 ft | 204 kts | 330° |
| 2026-05-04 13:57 | 50.52349 | 7.55354 | 19991 ft | 205 kts | 331° |
| 2026-05-04 13:58 | 50.56240 | 7.52543 | 19987 ft | 203 kts | 321° |
| 2026-05-04 13:58 | 50.58597 | 7.50112 | 19987 ft | 202 kts | 321° |
| 2026-05-04 13:58 | 50.59778 | 7.48907 | 19988 ft | 202 kts | 321° |
| 2026-05-04 13:59 | 50.60963 | 7.47696 | 19989 ft | 203 kts | 321° |
| 2026-05-04 13:59 | 50.62134 | 7.46497 | 20000 ft | 204 kts | 321° |
| 2026-05-04 13:59 | 50.64525 | 7.44047 | 19983 ft | 205 kts | 321° |
| 2026-05-04 14:00 | 50.65722 | 7.42820 | 19984 ft | 205 kts | 321° |
| 2026-05-04 14:00 | 50.68103 | 7.40377 | 19984 ft | 204 kts | 321° |
| 2026-05-04 14:00 | 50.69290 | 7.39158 | 19988 ft | 203 kts | 321° |
| 2026-05-04 14:01 | 50.70475 | 7.37939 | 19991 ft | 203 kts | 321° |
| 2026-05-04 14:01 | 50.71660 | 7.36719 | 19988 ft | 203 kts | 321° |
| 2026-05-04 14:01 | 50.74017 | 7.34284 | 19990 ft | 201 kts | 318° |
| 2026-05-04 14:02 | 50.74972 | 7.32745 | 19990 ft | 193 kts | 298° |
| 2026-05-04 14:02 | 50.75741 | 7.31008 | 19990 ft | 193 kts | 298° |
| 2026-05-04 14:02 | 50.76515 | 7.29282 | 19991 ft | 192 kts | 298° |
| 2026-05-04 14:02 | 50.77286 | 7.27561 | 19991 ft | 192 kts | 298° |
| 2026-05-04 14:03 | 50.78054 | 7.25846 | 19994 ft | 191 kts | 298° |
| 2026-05-04 14:03 | 50.78821 | 7.24130 | 19992 ft | 191 kts | 298° |
| 2026-05-04 14:03 | 50.79585 | 7.22418 | 19993 ft | 191 kts | 298° |
| 2026-05-04 14:03 | 50.80350 | 7.20704 | 19994 ft | 190 kts | 298° |
| 2026-05-04 14:04 | 50.81874 | 7.17286 | 19998 ft | 190 kts | 298° |
| 2026-05-04 14:04 | 50.82632 | 7.15582 | 19995 ft | 189 kts | 298° |
| 2026-05-04 14:04 | 50.83381 | 7.13901 | 19996 ft | 190 kts | 298° |
| 2026-05-04 14:05 | 50.84912 | 7.10456 | 20000 ft | 193 kts | 298° |
| 2026-05-04 14:05 | 50.85689 | 7.08707 | 19998 ft | 195 kts | 298° |
| 2026-05-04 14:05 | 50.86472 | 7.06943 | 20007 ft | 196 kts | 298° |
| 2026-05-04 14:06 | 50.87258 | 7.05173 | 19994 ft | 197 kts | 298° |
| 2026-05-04 14:06 | 50.88043 | 7.03405 | 19994 ft | 195 kts | 298° |
| 2026-05-04 14:06 | 50.88819 | 7.01654 | 19994 ft | 193 kts | 298° |
| 2026-05-04 14:06 | 50.89587 | 6.99919 | 19992 ft | 192 kts | 298° |
| 2026-05-04 14:07 | 50.90350 | 6.98197 | 19988 ft | 190 kts | 298° |
| 2026-05-04 14:07 | 50.91107 | 6.96487 | 19989 ft | 189 kts | 298° |
| 2026-05-04 14:07 | 50.91860 | 6.94784 | 19986 ft | 188 kts | 298° |
| 2026-05-04 14:07 | 50.92611 | 6.93085 | 19987 ft | 187 kts | 298° |
| 2026-05-04 14:08 | 50.93358 | 6.91396 | 19988 ft | 187 kts | 298° |
| 2026-05-04 14:08 | 50.94101 | 6.89713 | 19988 ft | 186 kts | 298° |
| 2026-05-04 14:08 | 50.94842 | 6.88032 | 19986 ft | 186 kts | 298° |
| 2026-05-04 14:08 | 50.95582 | 6.86354 | 19987 ft | 186 kts | 298° |
| 2026-05-04 14:09 | 50.97061 | 6.82997 | 19986 ft | 185 kts | 298° |
| 2026-05-04 14:09 | 50.97797 | 6.81326 | 19988 ft | 185 kts | 298° |
| 2026-05-04 14:10 | 50.99264 | 6.77987 | 19995 ft | 185 kts | 298° |
| 2026-05-04 14:10 | 51.00005 | 6.76301 | 19994 ft | 186 kts | 298° |
| 2026-05-04 14:10 | 51.00747 | 6.74613 | 19993 ft | 186 kts | 298° |
| 2026-05-04 14:10 | 51.01484 | 6.72933 | 19994 ft | 185 kts | 298° |
| 2026-05-04 14:11 | 51.02219 | 6.71255 | 19992 ft | 185 kts | 298° |
| 2026-05-04 14:11 | 51.03674 | 6.67935 | 19991 ft | 183 kts | 298° |
| 2026-05-04 14:11 | 51.04403 | 6.66267 | 19997 ft | 185 kts | 298° |
| 2026-05-04 14:12 | 51.05138 | 6.64545 | 19996 ft | 192 kts | 298° |
| 2026-05-04 14:12 | 51.05923 | 6.62780 | 20005 ft | 199 kts | 300° |
| 2026-05-04 14:12 | 51.07528 | 6.59115 | 19991 ft | 206 kts | 297° |
| 2026-05-04 14:13 | 51.08344 | 6.57193 | 19977 ft | 213 kts | 300° |
| 2026-05-04 14:13 | 51.09214 | 6.55261 | 19998 ft | 215 kts | 299° |
| 2026-05-04 14:13 | 51.10052 | 6.53277 | 19987 ft | 218 kts | 299° |
| 2026-05-04 14:13 | 51.10942 | 6.51337 | 19988 ft | 216 kts | 296° |
| 2026-05-04 14:14 | 51.11726 | 6.49330 | 19987 ft | 214 kts | 298° |
| 2026-05-04 14:14 | 51.13438 | 6.45555 | 19987 ft | 205 kts | 298° |
| 2026-05-04 14:14 | 51.14234 | 6.43703 | 19984 ft | 200 kts | 298° |
| 2026-05-04 14:15 | 51.15774 | 6.40138 | 19991 ft | 192 kts | 298° |
| 2026-05-04 14:15 | 51.17272 | 6.36676 | 19985 ft | 188 kts | 298° |
| 2026-05-04 14:16 | 51.18740 | 6.33277 | 19985 ft | 185 kts | 298° |
| 2026-05-04 14:16 | 51.19465 | 6.31596 | 19984 ft | 184 kts | 298° |
| 2026-05-04 14:17 | 51.20906 | 6.28253 | 19982 ft | 182 kts | 297° |
| 2026-05-04 14:17 | 51.21622 | 6.26591 | 19982 ft | 182 kts | 298° |
| 2026-05-04 14:17 | 51.23045 | 6.23285 | 19980 ft | 182 kts | 297° |
| 2026-05-04 14:18 | 51.23760 | 6.21620 | 19984 ft | 183 kts | 297° |
| 2026-05-04 14:18 | 51.25236 | 6.18177 | 19989 ft | 192 kts | 299° |
| 2026-05-04 14:19 | 51.26742 | 6.14674 | 19985 ft | 190 kts | 299° |
| 2026-05-04 14:19 | 51.27488 | 6.12933 | 19982 ft | 189 kts | 298° |
| 2026-05-04 14:19 | 51.28200 | 6.11177 | 19978 ft | 188 kts | 297° |
| 2026-05-04 14:19 | 51.28923 | 6.09442 | 19975 ft | 187 kts | 298° |
| 2026-05-04 14:20 | 51.29643 | 6.07717 | 19974 ft | 186 kts | 297° |
| 2026-05-04 14:20 | 51.30356 | 6.05989 | 19973 ft | 186 kts | 297° |
| 2026-05-04 14:20 | 51.30824 | 6.04848 | 19972 ft | 185 kts | 297° |
| 2026-05-04 14:21 | 51.32237 | 6.01406 | 19969 ft | 185 kts | 297° |
| 2026-05-04 14:21 | 51.32942 | 5.99688 | 19965 ft | 184 kts | 297° |
| 2026-05-04 14:21 | 51.33645 | 5.97973 | 19964 ft | 184 kts | 297° |
| 2026-05-04 14:21 | 51.34349 | 5.96255 | 19965 ft | 184 kts | 297° |
| 2026-05-04 14:22 | 51.35048 | 5.94545 | 19964 ft | 184 kts | 297° |
| 2026-05-04 14:22 | 51.35749 | 5.92835 | 19960 ft | 184 kts | 297° |
| 2026-05-04 14:22 | 51.36448 | 5.91123 | 19960 ft | 184 kts | 297° |
| 2026-05-04 14:22 | 51.37146 | 5.89415 | 19960 ft | 183 kts | 297° |
| 2026-05-04 14:23 | 51.38539 | 5.86003 | 19961 ft | 183 kts | 297° |
| 2026-05-04 14:23 | 51.39235 | 5.84298 | 19961 ft | 183 kts | 297° |
| 2026-05-04 14:23 | 51.39928 | 5.82596 | 19961 ft | 183 kts | 297° |
| 2026-05-04 14:24 | 51.40613 | 5.80915 | 19962 ft | 183 kts | 297° |
| 2026-05-04 14:24 | 51.41307 | 5.79210 | 19962 ft | 183 kts | 297° |
| 2026-05-04 14:24 | 51.42002 | 5.77500 | 19962 ft | 183 kts | 297° |
| 2026-05-04 14:24 | 51.42697 | 5.75790 | 19962 ft | 183 kts | 297° |
| 2026-05-04 14:25 | 51.43389 | 5.74084 | 19974 ft | 182 kts | 300° |
| 2026-05-04 14:25 | 51.44762 | 5.70706 | 19973 ft | 180 kts | 300° |
| 2026-05-04 14:25 | 51.45443 | 5.69025 | 19972 ft | 179 kts | 300° |
| 2026-05-04 14:26 | 51.46123 | 5.67347 | 19972 ft | 179 kts | 300° |
| 2026-05-04 14:26 | 51.46799 | 5.65678 | 19972 ft | 178 kts | 300° |
| 2026-05-04 14:26 | 51.47471 | 5.64016 | 19971 ft | 177 kts | 300° |
| 2026-05-04 14:26 | 51.48141 | 5.62360 | 19972 ft | 177 kts | 300° |
| 2026-05-04 14:27 | 51.48811 | 5.60701 | 19969 ft | 177 kts | 300° |
| 2026-05-04 14:27 | 51.49479 | 5.59048 | 19968 ft | 176 kts | 300° |
| 2026-05-04 14:27 | 51.50144 | 5.57397 | 19969 ft | 176 kts | 300° |
| 2026-05-04 14:27 | 51.50809 | 5.55749 | 19970 ft | 176 kts | 300° |
| 2026-05-04 14:28 | 51.51473 | 5.54103 | 19972 ft | 176 kts | 300° |
| 2026-05-04 14:28 | 51.52140 | 5.52448 | 19971 ft | 176 kts | 300° |
| 2026-05-04 14:28 | 51.52803 | 5.50800 | 19972 ft | 176 kts | 300° |
| 2026-05-04 14:28 | 51.53459 | 5.49170 | 19972 ft | 176 kts | 300° |
| 2026-05-04 14:29 | 51.54788 | 5.45862 | 19960 ft | 177 kts | 300° |
| 2026-05-04 14:29 | 51.56120 | 5.42545 | 19959 ft | 176 kts | 299° |
| 2026-05-04 14:30 | 51.56785 | 5.40887 | 19958 ft | 176 kts | 299° |
| 2026-05-04 14:30 | 51.57449 | 5.39229 | 19959 ft | 176 kts | 299° |
| 2026-05-04 14:30 | 51.58779 | 5.35907 | 19959 ft | 177 kts | 299° |
| 2026-05-04 14:31 | 51.59445 | 5.34243 | 19962 ft | 177 kts | 299° |
| 2026-05-04 14:31 | 51.60778 | 5.30905 | 19970 ft | 178 kts | 300° |
| 2026-05-04 14:32 | 51.62123 | 5.27534 | 19972 ft | 180 kts | 300° |
| 2026-05-04 14:32 | 51.62800 | 5.25840 | 19972 ft | 180 kts | 300° |
| 2026-05-04 14:32 | 51.63477 | 5.24138 | 19972 ft | 181 kts | 300° |
| 2026-05-04 14:32 | 51.64157 | 5.22431 | 19988 ft | 181 kts | 300° |
| 2026-05-04 14:33 | 51.64836 | 5.20726 | 19990 ft | 181 kts | 300° |
| 2026-05-04 14:33 | 51.65512 | 5.19024 | 19991 ft | 180 kts | 300° |
| 2026-05-04 14:33 | 51.66189 | 5.17322 | 19991 ft | 180 kts | 300° |
| 2026-05-04 14:33 | 51.66865 | 5.15618 | 19992 ft | 181 kts | 300° |
| 2026-05-04 14:34 | 51.67545 | 5.13906 | 19994 ft | 181 kts | 300° |
| 2026-05-04 14:34 | 51.68224 | 5.12192 | 19994 ft | 182 kts | 300° |
| 2026-05-04 14:34 | 51.68897 | 5.10494 | 19996 ft | 183 kts | 300° |
| 2026-05-04 14:34 | 51.69581 | 5.08767 | 19995 ft | 183 kts | 300° |
| 2026-05-04 14:35 | 51.70267 | 5.07035 | 19997 ft | 183 kts | 299° |
| 2026-05-04 14:35 | 51.70949 | 5.05310 | 19997 ft | 183 kts | 299° |
| 2026-05-04 14:35 | 51.71631 | 5.03584 | 19997 ft | 182 kts | 299° |
| 2026-05-04 14:35 | 51.72313 | 5.01857 | 19997 ft | 183 kts | 299° |
| 2026-05-04 14:36 | 51.72996 | 5.00127 | 19995 ft | 183 kts | 299° |
| 2026-05-04 14:36 | 51.73681 | 4.98391 | 19995 ft | 183 kts | 299° |
| 2026-05-04 14:36 | 51.74367 | 4.96651 | 19994 ft | 184 kts | 299° |
| 2026-05-04 14:36 | 51.75054 | 4.94907 | 19995 ft | 184 kts | 299° |
| 2026-05-04 14:37 | 51.75742 | 4.93158 | 19998 ft | 185 kts | 299° |
| 2026-05-04 14:37 | 51.76434 | 4.91399 | 19978 ft | 186 kts | 299° |
| 2026-05-04 14:37 | 51.77126 | 4.89639 | 19979 ft | 186 kts | 299° |
| 2026-05-04 14:37 | 51.77822 | 4.87867 | 19980 ft | 187 kts | 299° |
| 2026-05-04 14:38 | 51.78519 | 4.86093 | 19977 ft | 187 kts | 299° |
| 2026-05-04 14:38 | 51.79217 | 4.84313 | 19979 ft | 188 kts | 299° |
| 2026-05-04 14:38 | 51.79906 | 4.82553 | 19977 ft | 188 kts | 299° |
| 2026-05-04 14:38 | 51.80606 | 4.80768 | 19977 ft | 188 kts | 299° |
| 2026-05-04 14:39 | 51.81305 | 4.78981 | 19980 ft | 189 kts | 299° |
| 2026-05-04 14:39 | 51.82009 | 4.77181 | 19980 ft | 189 kts | 299° |
| 2026-05-04 14:39 | 51.82711 | 4.75385 | 19980 ft | 189 kts | 299° |
| 2026-05-04 14:40 | 51.84116 | 4.71786 | 19982 ft | 189 kts | 299° |
| 2026-05-04 14:40 | 51.84819 | 4.69983 | 19983 ft | 190 kts | 298° |
| 2026-05-04 14:40 | 51.85522 | 4.68177 | 19977 ft | 190 kts | 299° |
| 2026-05-04 14:40 | 51.86228 | 4.66365 | 19976 ft | 190 kts | 299° |
| 2026-05-04 14:41 | 51.86932 | 4.64556 | 19977 ft | 190 kts | 299° |
| 2026-05-04 14:41 | 51.87636 | 4.62747 | 19976 ft | 190 kts | 299° |
| 2026-05-04 14:41 | 51.89041 | 4.59128 | 19975 ft | 190 kts | 299° |
| 2026-05-04 14:42 | 51.90447 | 4.55504 | 19974 ft | 190 kts | 299° |
| 2026-05-04 14:42 | 51.91150 | 4.53689 | 19974 ft | 190 kts | 298° |
| 2026-05-04 14:42 | 51.91851 | 4.51878 | 19974 ft | 190 kts | 298° |
| 2026-05-04 14:43 | 51.92553 | 4.50064 | 19974 ft | 190 kts | 299° |
| 2026-05-04 14:43 | 51.93254 | 4.48251 | 19974 ft | 190 kts | 298° |
| 2026-05-04 14:43 | 51.93954 | 4.46438 | 19974 ft | 190 kts | 299° |
| 2026-05-04 14:43 | 51.94644 | 4.44652 | 19974 ft | 189 kts | 298° |
| 2026-05-04 14:44 | 51.95343 | 4.42840 | 19974 ft | 190 kts | 299° |
| 2026-05-04 14:44 | 51.96042 | 4.41027 | 19974 ft | 190 kts | 298° |
| 2026-05-04 14:44 | 51.96740 | 4.39216 | 19972 ft | 189 kts | 298° |
| 2026-05-04 14:44 | 51.97435 | 4.37414 | 19972 ft | 188 kts | 298° |
| 2026-05-04 14:45 | 51.98126 | 4.35615 | 19972 ft | 187 kts | 298° |
| 2026-05-04 14:45 | 51.98815 | 4.33823 | 19971 ft | 187 kts | 298° |
| 2026-05-04 14:45 | 51.99504 | 4.32030 | 19971 ft | 187 kts | 298° |
| 2026-05-04 14:45 | 52.00190 | 4.30244 | 19972 ft | 186 kts | 298° |
| 2026-05-04 14:46 | 52.00875 | 4.28459 | 19973 ft | 186 kts | 298° |
| 2026-05-04 14:46 | 52.01558 | 4.26676 | 19973 ft | 186 kts | 298° |
| 2026-05-04 14:46 | 52.02241 | 4.24894 | 19974 ft | 186 kts | 298° |
| 2026-05-04 14:46 | 52.02924 | 4.23109 | 19975 ft | 186 kts | 298° |
| 2026-05-04 14:47 | 52.03606 | 4.21327 | 19987 ft | 186 kts | 298° |
| 2026-05-04 14:47 | 52.04288 | 4.19543 | 19987 ft | 186 kts | 298° |
| 2026-05-04 14:47 | 52.04970 | 4.17759 | 19987 ft | 186 kts | 298° |
| 2026-05-04 14:47 | 52.05651 | 4.15974 | 19987 ft | 186 kts | 298° |
| 2026-05-04 14:48 | 52.06332 | 4.14190 | 19987 ft | 186 kts | 298° |
| 2026-05-04 14:48 | 52.07012 | 4.12405 | 19987 ft | 186 kts | 298° |
| 2026-05-04 14:48 | 52.07692 | 4.10622 | 19990 ft | 186 kts | 298° |
| 2026-05-04 14:48 | 52.08385 | 4.08799 | 19803 ft | 195 kts | 298° |
| 2026-05-04 14:49 | 52.09115 | 4.06875 | 19560 ft | 204 kts | 298° |
| 2026-05-04 14:49 | 52.09835 | 4.05000 | 19203 ft | 180 kts | 298° |
| 2026-05-04 14:49 | 52.10466 | 4.03326 | 18732 ft | 172 kts | 298° |
| 2026-05-04 14:49 | 52.11082 | 4.01692 | 18256 ft | 167 kts | 298° |
| 2026-05-04 14:50 | 52.11683 | 4.00107 | 17725 ft | 163 kts | 298° |
| 2026-05-04 14:50 | 52.12272 | 3.98551 | 17197 ft | 160 kts | 299° |
| 2026-05-04 14:50 | 52.12887 | 3.97045 | 16678 ft | 159 kts | 300° |
| 2026-05-04 14:50 | 52.13457 | 3.95534 | 16172 ft | 157 kts | 297° |
| 2026-05-04 14:51 | 52.13978 | 3.93962 | 15662 ft | 156 kts | 290° |
| 2026-05-04 14:51 | 52.14300 | 3.92273 | 15176 ft | 161 kts | 280° |
| 2026-05-04 14:51 | 52.14496 | 3.90400 | 14697 ft | 174 kts | 277° |
| 2026-05-04 14:51 | 52.14679 | 3.88386 | 14220 ft | 184 kts | 277° |
| 2026-05-04 14:52 | 52.14861 | 3.86283 | 13742 ft | 191 kts | 277° |
| 2026-05-04 14:52 | 52.14956 | 3.84179 | 13152 ft | 179 kts | 269° |
| 2026-05-04 14:52 | 52.14934 | 3.82220 | 12496 ft | 168 kts | 268° |
| 2026-05-04 14:52 | 52.14899 | 3.80365 | 11861 ft | 160 kts | 265° |
| 2026-05-04 14:53 | 52.14620 | 3.78647 | 11242 ft | 155 kts | 250° |
| 2026-05-04 14:53 | 52.14067 | 3.77226 | 10636 ft | 153 kts | 218° |
| 2026-05-04 14:53 | 52.13052 | 3.76768 | 10035 ft | 154 kts | 186° |
| 2026-05-04 14:53 | 52.12043 | 3.76274 | 9393 ft | 152 kts | 210° |
| 2026-05-04 14:54 | 52.11143 | 3.75391 | 8754 ft | 151 kts | 212° |
| 2026-05-04 14:54 | 52.10276 | 3.74503 | 8133 ft | 151 kts | 213° |
| 2026-05-04 14:54 | 52.09388 | 3.73589 | 7507 ft | 150 kts | 213° |
| 2026-05-04 14:54 | 52.08508 | 3.72672 | 6913 ft | 148 kts | 213° |
| 2026-05-04 14:55 | 52.07682 | 3.71813 | 6300 ft | 135 kts | 213° |
| 2026-05-04 14:55 | 52.06896 | 3.71007 | 5674 ft | 139 kts | 212° |
| 2026-05-04 14:55 | 52.06073 | 3.70152 | 5048 ft | 141 kts | 213° |
| 2026-05-04 14:55 | 52.05245 | 3.69296 | 4422 ft | 141 kts | 213° |
| 2026-05-04 14:56 | 52.04414 | 3.68446 | 3798 ft | 141 kts | 213° |
| 2026-05-04 14:56 | 52.03579 | 3.67597 | 3197 ft | 141 kts | 213° |
| 2026-05-04 14:56 | 52.02818 | 3.66842 | 3016 ft | 114 kts | 213° |
| 2026-05-04 14:56 | 52.02103 | 3.66148 | 3026 ft | 123 kts | 213° |
| 2026-05-04 14:57 | 52.01306 | 3.65358 | 3042 ft | 145 kts | 213° |
| 2026-05-04 14:57 | 52.00439 | 3.64493 | 3043 ft | 146 kts | 212° |
| 2026-05-04 14:57 | 51.99572 | 3.63634 | 3034 ft | 145 kts | 213° |
| 2026-05-04 14:57 | 51.98636 | 3.63038 | 3031 ft | 146 kts | 182° |
| 2026-05-04 14:58 | 51.97652 | 3.63348 | 3026 ft | 145 kts | 153° |
| 2026-05-04 14:58 | 51.96824 | 3.64196 | 3028 ft | 136 kts | 140° |
| 2026-05-04 14:58 | 51.96249 | 3.65347 | 3015 ft | 128 kts | 110° |
| 2026-05-04 14:58 | 51.96152 | 3.66262 | 3055 ft | 120 kts | 88° |
| 2026-05-04 14:59 | 51.96165 | 3.68094 | 2953 ft | 123 kts | 88° |
| 2026-05-04 14:59 | 51.96215 | 3.69437 | 2943 ft | 119 kts | 84° |
| 2026-05-04 14:59 | 51.96342 | 3.72282 | 2775 ft | 143 kts | 84° |
| 2026-05-04 15:00 | 51.96444 | 3.74001 | 2660 ft | 155 kts | 84° |
| 2026-05-04 15:00 | 51.96531 | 3.75525 | 2496 ft | 128 kts | 83° |
| 2026-05-04 15:00 | 51.96595 | 3.77008 | 2409 ft | 131 kts | 84° |
| 2026-05-04 15:01 | 51.96507 | 3.79911 | 2302 ft | 127 kts | 95° |
| 2026-05-04 15:01 | 51.96404 | 3.81356 | 2198 ft | 131 kts | 96° |
| 2026-05-04 15:01 | 51.96304 | 3.82810 | 2388 ft | 134 kts | 94° |
| 2026-05-04 15:01 | 51.96194 | 3.84356 | 2425 ft | 148 kts | 95° |
| 2026-05-04 15:02 | 51.96071 | 3.86130 | 2435 ft | 161 kts | 97° |
| 2026-05-04 15:02 | 51.95934 | 3.87853 | 2294 ft | 152 kts | 97° |
| 2026-05-04 15:02 | 51.95759 | 3.89496 | 2213 ft | 145 kts | 98° |
| 2026-05-04 15:02 | 51.95585 | 3.91095 | 2176 ft | 140 kts | 95° |
| 2026-05-04 15:03 | 51.95579 | 3.92631 | 2292 ft | 133 kts | 85° |
| 2026-05-04 15:03 | 51.95645 | 3.94119 | 2370 ft | 133 kts | 85° |
| 2026-05-04 15:03 | 51.95660 | 3.95669 | 2351 ft | 140 kts | 88° |
| 2026-05-04 15:03 | 51.95689 | 3.97268 | 2363 ft | 143 kts | 86° |
| 2026-05-04 15:04 | 51.95783 | 3.98809 | 2483 ft | 138 kts | 82° |
| 2026-05-04 15:04 | 51.95953 | 4.00355 | 2527 ft | 139 kts | 77° |
| 2026-05-04 15:04 | 51.96158 | 4.01893 | 2568 ft | 141 kts | 76° |
| 2026-05-04 15:04 | 51.96401 | 4.03446 | 2609 ft | 142 kts | 73° |
| 2026-05-04 15:05 | 51.96666 | 4.05001 | 2613 ft | 145 kts | 79° |
| 2026-05-04 15:05 | 51.96841 | 4.06636 | 2524 ft | 153 kts | 79° |
| 2026-05-04 15:05 | 51.97022 | 4.08340 | 2446 ft | 150 kts | 80° |
| 2026-05-04 15:05 | 51.97158 | 4.09976 | 2345 ft | 143 kts | 85° |
| 2026-05-04 15:06 | 51.97203 | 4.11566 | 2249 ft | 138 kts | 85° |
| 2026-05-04 15:06 | 51.97301 | 4.13048 | 2282 ft | 125 kts | 81° |
| 2026-05-04 15:06 | 51.97356 | 4.14434 | 2324 ft | 121 kts | 86° |
| 2026-05-04 15:07 | 51.97482 | 4.17138 | 2333 ft | 121 kts | 80° |
| 2026-05-04 15:07 | 51.97627 | 4.18466 | 2334 ft | 121 kts | 77° |
| 2026-05-04 15:07 | 51.97680 | 4.19402 | 2295 ft | 124 kts | 85° |
| 2026-05-04 15:07 | 51.97800 | 4.21231 | 2444 ft | 134 kts | 86° |
| 2026-05-04 15:08 | 51.97831 | 4.22289 | 2418 ft | 152 kts | 89° |
| 2026-05-04 15:08 | 51.97714 | 4.23903 | 2133 ft | 139 kts | 101° |
| 2026-05-04 15:08 | 51.97503 | 4.25373 | 1841 ft | 136 kts | 101° |
| 2026-05-04 15:08 | 51.97404 | 4.26883 | 1625 ft | 136 kts | 90° |
| 2026-05-04 15:09 | 51.97359 | 4.28424 | 1504 ft | 137 kts | 89° |
| 2026-05-04 15:09 | 51.97324 | 4.29928 | 1356 ft | 128 kts | 89° |
| 2026-05-04 15:09 | 51.97289 | 4.31223 | 1382 ft | 110 kts | 87° |
| 2026-05-04 15:10 | 51.97248 | 4.33889 | 1532 ft | 120 kts | 90° |
| 2026-05-04 15:10 | 51.97198 | 4.35216 | 1509 ft | 117 kts | 90° |
| 2026-05-04 15:10 | 51.97091 | 4.37936 | 1529 ft | 132 kts | 89° |
| 2026-05-04 15:11 | 51.97085 | 4.39512 | 1588 ft | 150 kts | 81° |
| 2026-05-04 15:11 | 51.97598 | 4.40987 | 1641 ft | 155 kts | 34° |
| 2026-05-04 15:11 | 51.98593 | 4.41302 | 1467 ft | 144 kts | 342° |
| 2026-05-04 15:11 | 51.99298 | 4.40276 | 1450 ft | 135 kts | 290° |
| 2026-05-04 15:12 | 51.99165 | 4.38810 | 1523 ft | 146 kts | 243° |
| 2026-05-04 15:12 | 51.98355 | 4.37858 | 1633 ft | 148 kts | 198° |
| 2026-05-04 15:12 | 51.97349 | 4.38008 | 1495 ft | 153 kts | 156° |
| 2026-05-04 15:12 | 51.96490 | 4.38703 | 1412 ft | 120 kts | 151° |
| 2026-05-04 15:13 | 51.95862 | 4.39335 | 1184 ft | 100 kts | 144° |
| 2026-05-04 15:13 | 51.95348 | 4.40050 | 903 ft | 98 kts | 131° |
| 2026-05-04 15:13 | 51.94956 | 4.40963 | 613 ft | 100 kts | 110° |
| 2026-05-04 15:13 | 51.94943 | 4.42045 | 250 ft | 94 kts | 64° |
| 2026-05-04 15:14 | 51.95243 | 4.42903 | 65 ft | 83 kts | 49° |
| 2026-05-04 15:14 | 51.95542 | 4.43633 | -1 ft | 71 kts | 49° |
| 2026-05-04 15:14 | 51.95782 | 4.44240 | -6 ft | 63 kts | 59° |
| 2026-05-04 15:14 | 51.95916 | 4.44651 | -6 ft | 25 kts | 111° |
| 2026-05-04 15:15 | 51.95815 | 4.44773 | -5 ft | 12 kts | 167° |
| 2026-05-04 15:15 | 51.95758 | 4.44698 | -5 ft | 11 kts | 243° |
| 2026-05-04 15:15 | 51.95715 | 4.44585 | -5 ft | 13 kts | 238° |
| 2026-05-04 15:16 | 51.95531 | 4.44121 | -5 ft | 34 kts | 236° |
| 2026-05-04 15:16 | 51.95395 | 4.43785 | -5 ft | 36 kts | 240° |
| 2026-05-04 15:16 | 51.95218 | 4.43539 | -5 ft | 12 kts | 146° |
| 2026-05-04 15:17 | 51.95126 | 4.43636 | -5 ft | 20 kts | 148° |
| 2026-05-04 15:17 | 51.95018 | 4.43800 | -5 ft | 6 kts | 35° |
| 2026-05-04 15:17 | 51.95049 | 4.43846 | -5 ft | 6 kts | 63° |
| 2026-05-04 15:18 | 51.95040 | 4.43902 | -5 ft | 6 kts | 153° |
| 2026-05-04 15:18 | 51.95007 | 4.43937 | -5 ft | 0 kts | 147° |